createdAt,value
2023-03-31T00:01:12.220Z,25.17
2023-03-31T00:04:04.930Z,25.23
2023-03-31T00:06:56.498Z,25.26
2023-03-31T00:09:46.637Z,25.21
2023-03-31T00:12:35.531Z,25.16
2023-03-31T00:15:24.156Z,25.06
2023-03-31T00:18:12.734Z,25.04
2023-03-31T00:21:14.511Z,25.17
2023-03-31T00:24:06.823Z,25.14
2023-03-31T00:26:55.466Z,25.10
2023-03-31T00:29:45.271Z,25.03
2023-03-31T00:32:34.323Z,25.09
2023-03-31T00:35:22.942Z,25.06
2023-03-31T00:38:14.012Z,25.08
2023-03-31T00:41:04.560Z,25.06
2023-03-31T00:44:04.258Z,25.06
2023-03-31T00:46:54.753Z,25.08
2023-03-31T00:49:45.447Z,25.01
2023-03-31T00:52:37.557Z,25.08
2023-03-31T00:55:30.465Z,25.11
2023-03-31T00:58:21.929Z,25.09
2023-03-31T01:01:10.943Z,25.05
2023-03-31T01:03:59.763Z,25.00
2023-03-31T01:06:57.390Z,24.95
2023-03-31T01:09:47.364Z,24.98
2023-03-31T01:12:39.077Z,25.00
2023-03-31T01:15:29.059Z,24.98
2023-03-31T01:18:23.243Z,25.03
2023-03-31T01:21:38.527Z,25.00
2023-03-31T01:24:54.949Z,25.00
2023-03-31T01:28:03.294Z,25.04
2023-03-31T01:31:22.608Z,25.07
2023-03-31T01:34:41.815Z,25.03
2023-03-31T01:37:57.689Z,25.03
2023-03-31T01:41:19.009Z,25.03
2023-03-31T01:44:14.942Z,24.96
2023-03-31T01:47:08.500Z,24.91
2023-03-31T01:50:00.185Z,24.91
2023-03-31T01:52:51.452Z,24.96
2023-03-31T01:55:42.930Z,24.93
2023-03-31T01:58:37.160Z,24.96
2023-03-31T02:01:31.499Z,24.95
2023-03-31T02:04:23.101Z,24.96
2023-03-31T02:07:17.509Z,24.95
2023-03-31T02:10:09.173Z,24.94
2023-03-31T02:12:58.577Z,24.95
2023-03-31T02:15:53.277Z,24.95
2023-03-31T02:18:42.045Z,24.94
2023-03-31T02:21:31.894Z,24.96
2023-03-31T02:24:21.969Z,24.96
2023-03-31T02:27:14.309Z,25.00
2023-03-31T02:30:05.094Z,24.97
2023-03-31T02:32:56.422Z,24.94
2023-03-31T02:35:45.202Z,24.98
2023-03-31T02:38:36.152Z,25.06
2023-03-31T02:41:24.824Z,24.98
2023-03-31T02:44:14.070Z,25.02
2023-03-31T02:47:02.908Z,25.02
2023-03-31T02:49:55.952Z,25.00
2023-03-31T02:52:54.022Z,24.94
2023-03-31T02:55:58.227Z,24.91
2023-03-31T02:59:02.256Z,24.97
2023-03-31T03:02:02.628Z,25.02
2023-03-31T03:05:14.894Z,24.97
2023-03-31T03:08:10.957Z,25.01
2023-03-31T03:11:08.093Z,25.07
2023-03-31T03:14:02.514Z,24.97
2023-03-31T03:16:55.684Z,24.94
2023-03-31T03:19:44.931Z,24.92
2023-03-31T03:22:35.765Z,24.96
2023-03-31T03:25:24.788Z,24.99
2023-03-31T03:28:14.586Z,25.08
2023-03-31T03:31:05.033Z,25.03
2023-03-31T03:33:54.370Z,25.05
2023-03-31T03:36:43.732Z,25.03
2023-03-31T03:39:34.674Z,25.02
2023-03-31T03:42:23.522Z,25.00
2023-03-31T03:45:13.730Z,25.00
2023-03-31T03:48:02.807Z,24.99
2023-03-31T03:50:53.602Z,24.96
2023-03-31T03:53:42.573Z,25.04
2023-03-31T03:56:35.748Z,25.03
2023-03-31T03:59:24.557Z,24.91
2023-03-31T04:02:15.016Z,24.94
2023-03-31T04:05:05.234Z,24.96
2023-03-31T04:07:54.433Z,24.87
2023-03-31T04:10:49.225Z,24.84
2023-03-31T04:13:40.538Z,24.82
2023-03-31T04:16:29.524Z,24.87
2023-03-31T04:19:19.103Z,24.86
2023-03-31T04:22:12.481Z,24.84
2023-03-31T04:25:01.342Z,24.88
2023-03-31T04:27:55.192Z,24.97
2023-03-31T04:30:45.736Z,24.99
2023-03-31T04:33:38.681Z,25.05
2023-03-31T04:36:29.127Z,25.03
2023-03-31T04:39:28.872Z,25.03
2023-03-31T04:42:19.189Z,25.15
2023-03-31T04:45:09.684Z,25.19
2023-03-31T04:47:59.894Z,25.18
2023-03-31T04:50:52.339Z,25.13
2023-03-31T04:53:42.457Z,25.10
2023-03-31T04:56:34.131Z,25.13
2023-03-31T04:59:22.910Z,25.01
2023-03-31T05:02:11.635Z,25.09
2023-03-31T05:05:02.290Z,25.10
2023-03-31T05:07:53.211Z,25.05
2023-03-31T05:10:41.850Z,25.07
2023-03-31T05:13:30.509Z,25.05
2023-03-31T05:16:19.084Z,24.99
2023-03-31T05:19:07.685Z,24.98
2023-03-31T05:21:57.880Z,24.95
2023-03-31T05:24:46.625Z,25.22
2023-03-31T05:27:35.650Z,25.18
2023-03-31T05:30:26.279Z,25.31
2023-03-31T05:33:14.898Z,25.27
2023-03-31T05:36:03.954Z,25.25
2023-03-31T05:38:54.118Z,25.26
2023-03-31T05:41:42.859Z,25.30
2023-03-31T05:44:31.504Z,25.28
2023-03-31T05:47:20.347Z,25.31
2023-03-31T05:50:09.597Z,25.20
2023-03-31T05:52:59.361Z,25.13
2023-03-31T05:55:49.434Z,25.12
2023-03-31T05:58:38.660Z,25.13
2023-03-31T06:01:27.298Z,25.12
2023-03-31T06:04:16.119Z,25.13
2023-03-31T06:07:05.524Z,25.09
2023-03-31T06:09:54.136Z,25.06
2023-03-31T06:12:44.215Z,25.09
2023-03-31T06:15:32.843Z,25.12
2023-03-31T06:18:21.505Z,25.15
2023-03-31T06:21:12.469Z,25.15
2023-03-31T06:24:01.208Z,25.17
2023-03-31T06:26:51.232Z,25.14
2023-03-31T06:29:42.803Z,25.13
2023-03-31T06:32:31.461Z,25.09
2023-03-31T06:35:20.120Z,25.10
2023-03-31T06:38:09.225Z,25.13
2023-03-31T06:40:57.885Z,25.13
2023-03-31T06:43:46.683Z,25.13
2023-03-31T06:46:37.088Z,25.10
2023-03-31T06:49:26.337Z,25.06
2023-03-31T06:52:15.538Z,25.11
2023-03-31T06:55:04.369Z,25.15
2023-03-31T06:57:53.224Z,25.15
2023-03-31T07:00:42.024Z,25.17
2023-03-31T07:03:32.564Z,25.17
2023-03-31T07:06:21.577Z,25.18
2023-03-31T07:09:10.302Z,25.15
2023-03-31T07:11:59.165Z,25.15
2023-03-31T07:14:47.817Z,25.11
2023-03-31T07:17:37.474Z,25.09
2023-03-31T07:20:27.654Z,25.08
2023-03-31T07:23:16.263Z,25.08
2023-03-31T07:26:05.155Z,25.14
2023-03-31T07:28:56.605Z,25.12
2023-03-31T07:31:45.423Z,25.15
2023-03-31T07:34:36.281Z,25.18
2023-03-31T07:37:27.602Z,25.15
2023-03-31T07:40:18.138Z,25.12
2023-03-31T07:43:09.186Z,25.18
2023-03-31T07:45:58.250Z,25.13
2023-03-31T07:48:48.016Z,25.15
2023-03-31T07:51:37.052Z,25.17
2023-03-31T07:54:27.695Z,25.22
2023-03-31T07:57:16.770Z,25.26
2023-03-31T08:00:07.497Z,25.19
2023-03-31T08:02:56.191Z,25.26
2023-03-31T08:05:45.172Z,25.20
2023-03-31T08:08:34.544Z,25.22
2023-03-31T08:11:24.946Z,25.18
2023-03-31T08:14:13.673Z,25.23
2023-03-31T08:17:03.148Z,25.26
2023-03-31T08:19:52.112Z,25.28
2023-03-31T08:22:41.344Z,25.20
2023-03-31T08:25:29.931Z,25.25
2023-03-31T08:28:20.383Z,25.28
2023-03-31T08:31:10.646Z,25.26
2023-03-31T08:33:59.293Z,25.29
2023-03-31T08:36:48.916Z,25.27
2023-03-31T08:39:37.920Z,25.26
2023-03-31T08:42:31.355Z,25.28
2023-03-31T08:45:24.187Z,25.24
2023-03-31T08:48:21.927Z,25.20
2023-03-31T08:51:16.230Z,25.21
2023-03-31T08:54:08.149Z,25.26
2023-03-31T08:56:56.903Z,25.27
2023-03-31T08:59:46.192Z,25.32
2023-03-31T09:02:44.309Z,25.31
2023-03-31T09:05:59.693Z,25.30
2023-03-31T09:08:49.154Z,25.31
2023-03-31T09:11:40.739Z,25.30
2023-03-31T09:14:33.205Z,25.29
2023-03-31T09:17:25.467Z,25.35
2023-03-31T09:20:19.388Z,25.36
2023-03-31T09:23:12.819Z,25.38
2023-03-31T09:26:04.800Z,25.37
2023-03-31T09:28:54.604Z,25.40
2023-03-31T09:31:45.792Z,25.36
2023-03-31T09:34:37.713Z,25.30
2023-03-31T09:37:30.290Z,25.32
2023-03-31T09:40:21.013Z,25.38
2023-03-31T09:43:14.150Z,25.34
2023-03-31T09:46:09.624Z,25.34
2023-03-31T09:49:06.231Z,25.38
2023-03-31T09:52:03.571Z,25.37
2023-03-31T09:54:55.076Z,25.35
2023-03-31T09:57:43.690Z,25.40
2023-03-31T10:00:32.278Z,25.35
2023-03-31T10:03:20.926Z,25.30
2023-03-31T10:06:11.593Z,25.33
2023-03-31T10:09:02.974Z,25.37
2023-03-31T10:11:57.727Z,25.39
2023-03-31T10:14:47.986Z,25.36
2023-03-31T10:17:47.108Z,25.32
2023-03-31T10:20:42.984Z,25.36
2023-03-31T10:23:33.473Z,25.37
2023-03-31T10:26:23.363Z,25.38
2023-03-31T10:29:14.569Z,25.37
2023-03-31T10:32:06.708Z,25.36
2023-03-31T10:34:56.489Z,25.40
2023-03-31T10:37:45.126Z,25.41
2023-03-31T10:40:35.239Z,25.46
2023-03-31T10:43:27.749Z,25.46
2023-03-31T10:46:17.760Z,25.46
2023-03-31T10:49:17.345Z,25.47
2023-03-31T10:52:17.462Z,25.40
2023-03-31T10:55:13.777Z,25.39
2023-03-31T10:58:08.057Z,25.41
2023-03-31T11:01:06.959Z,25.44
2023-03-31T11:04:07.014Z,25.38
2023-03-31T11:06:59.246Z,25.40
2023-03-31T11:09:57.862Z,25.43
2023-03-31T11:12:51.910Z,25.45
2023-03-31T11:15:44.484Z,25.45
2023-03-31T11:18:38.458Z,25.49
2023-03-31T11:21:34.648Z,25.50
2023-03-31T11:24:33.724Z,25.45
2023-03-31T11:27:32.784Z,25.46
2023-03-31T11:30:24.351Z,25.54
2023-03-31T11:33:28.726Z,25.46
2023-03-31T11:36:33.112Z,25.50
2023-03-31T11:39:33.716Z,25.51
2023-03-31T11:42:25.492Z,25.51
2023-03-31T11:45:18.502Z,25.47
2023-03-31T11:48:12.669Z,25.49
2023-03-31T11:51:03.778Z,25.49
2023-03-31T11:53:55.517Z,25.48
2023-03-31T11:56:44.639Z,25.48
2023-03-31T11:59:34.080Z,25.46
2023-03-31T12:02:36.890Z,25.39
2023-03-31T12:05:28.821Z,25.41
2023-03-31T12:08:19.769Z,25.40
2023-03-31T12:11:15.713Z,25.39
2023-03-31T12:14:16.162Z,25.35
2023-03-31T12:17:12.260Z,25.33
2023-03-31T12:20:07.242Z,25.34
2023-03-31T12:22:57.468Z,25.29
2023-03-31T12:25:52.060Z,25.29
2023-03-31T12:28:43.630Z,25.23
2023-03-31T12:31:33.625Z,25.21
2023-03-31T12:34:26.677Z,25.26
2023-03-31T12:37:49.079Z,25.27
2023-03-31T12:40:44.949Z,25.31
2023-03-31T12:43:59.527Z,25.35
2023-03-31T12:47:19.343Z,25.37
2023-03-31T12:50:28.644Z,25.32
2023-03-31T12:53:25.218Z,25.34
2023-03-31T12:56:14.011Z,25.40
2023-03-31T12:59:34.597Z,25.40
2023-03-31T13:02:26.687Z,25.40
2023-03-31T13:05:48.343Z,25.48
2023-03-31T13:08:55.097Z,25.47
2023-03-31T13:11:47.860Z,25.46
2023-03-31T13:14:40.245Z,25.49
2023-03-31T13:17:31.445Z,25.50
2023-03-31T13:20:32.957Z,25.48
2023-03-31T13:23:25.509Z,25.54
2023-03-31T13:26:41.669Z,25.46
2023-03-31T13:29:43.665Z,25.47
2023-03-31T13:32:32.460Z,25.48
2023-03-31T13:35:22.685Z,25.44
2023-03-31T13:38:17.370Z,25.45
2023-03-31T13:41:28.691Z,25.48
2023-03-31T13:44:36.625Z,25.46
2023-03-31T13:47:42.441Z,25.52
2023-03-31T13:50:55.171Z,25.61
2023-03-31T13:54:32.132Z,25.77
2023-03-31T13:57:42.030Z,25.81
2023-03-31T14:00:38.969Z,25.74
2023-03-31T14:03:51.525Z,25.77
2023-03-31T14:06:43.223Z,25.82
2023-03-31T14:09:34.084Z,25.59
2023-03-31T14:12:24.453Z,25.66
2023-03-31T14:15:20.590Z,25.66
2023-03-31T14:18:09.746Z,25.59
2023-03-31T14:21:09.473Z,25.48
2023-03-31T14:24:04.880Z,25.53
2023-03-31T14:27:01.121Z,25.43
2023-03-31T14:29:53.179Z,25.59
2023-03-31T14:32:47.988Z,25.65
2023-03-31T14:35:39.412Z,25.59
2023-03-31T14:38:30.075Z,25.61
2023-03-31T14:41:21.283Z,25.60
2023-03-31T14:44:16.582Z,25.45
2023-03-31T14:47:06.168Z,25.44
2023-03-31T14:50:02.232Z,25.61
2023-03-31T14:52:52.480Z,25.81
2023-03-31T14:55:57.538Z,25.96
2023-03-31T14:58:50.572Z,26.22
2023-03-31T15:01:40.067Z,26.32
2023-03-31T15:04:41.259Z,26.40
2023-03-31T15:07:31.513Z,26.43
2023-03-31T15:10:22.130Z,26.37
2023-03-31T15:13:13.897Z,26.47
2023-03-31T15:16:02.642Z,26.45
2023-03-31T15:18:55.324Z,26.55
2023-03-31T15:21:46.458Z,26.65
2023-03-31T15:24:35.157Z,26.65
2023-03-31T15:27:37.062Z,26.69
2023-03-31T15:30:42.935Z,26.59
2023-03-31T15:33:36.568Z,26.57
2023-03-31T15:36:33.936Z,26.47
2023-03-31T15:39:25.230Z,26.42
2023-03-31T15:42:13.981Z,26.38
2023-03-31T15:45:42.289Z,26.38
2023-03-31T15:48:34.840Z,26.33
2023-03-31T15:51:27.371Z,26.34
2023-03-31T15:54:31.794Z,26.41
2023-03-31T15:57:22.260Z,26.50
2023-03-31T16:00:47.294Z,26.17
2023-03-31T16:03:38.490Z,26.03
2023-03-31T16:06:34.453Z,26.03
2023-03-31T16:09:26.317Z,25.98
2023-03-31T16:12:18.228Z,25.97
2023-03-31T16:15:10.793Z,26.00
2023-03-31T16:18:03.452Z,26.02
2023-03-31T16:20:56.093Z,26.18
2023-03-31T16:23:45.935Z,26.17
2023-03-31T16:26:35.356Z,26.37
2023-03-31T16:29:24.273Z,26.56
2023-03-31T16:32:14.824Z,26.62
2023-03-31T16:35:07.512Z,26.66
2023-03-31T16:37:56.379Z,26.67
2023-03-31T16:40:46.511Z,26.72
2023-03-31T16:43:35.226Z,26.69
2023-03-31T16:46:24.858Z,26.65
2023-03-31T16:49:13.644Z,26.79
2023-03-31T16:52:05.003Z,26.85
2023-03-31T16:54:53.683Z,26.98
2023-03-31T16:57:42.441Z,27.00
2023-03-31T17:00:31.979Z,26.98
2023-03-31T17:03:20.797Z,26.99
2023-03-31T17:06:11.487Z,26.92
2023-03-31T17:09:01.732Z,26.99
2023-03-31T17:11:50.415Z,26.97
2023-03-31T17:14:39.662Z,26.73
2023-03-31T17:17:28.653Z,26.69
2023-03-31T17:20:21.442Z,26.79
2023-03-31T17:23:10.065Z,26.90
2023-03-31T17:26:00.480Z,27.01
2023-03-31T17:28:49.124Z,27.03
2023-03-31T17:31:37.921Z,27.04
2023-03-31T17:34:26.539Z,26.86
2023-03-31T17:37:15.281Z,26.83
2023-03-31T17:40:04.796Z,26.86
2023-03-31T17:42:54.891Z,26.87
2023-03-31T17:45:43.512Z,26.80
2023-03-31T17:48:34.105Z,26.67
2023-03-31T17:51:23.166Z,26.64
2023-03-31T17:54:12.361Z,26.63
2023-03-31T17:57:01.587Z,26.68
2023-03-31T17:59:51.632Z,26.56
2023-03-31T18:02:43.406Z,26.54
2023-03-31T18:05:33.435Z,26.57
2023-03-31T18:08:22.011Z,26.54
2023-03-31T18:11:11.783Z,26.53
2023-03-31T18:14:02.661Z,26.59
2023-03-31T18:16:52.994Z,26.59
2023-03-31T18:19:41.611Z,26.43
2023-03-31T18:22:30.472Z,26.45
2023-03-31T18:25:19.320Z,26.46
2023-03-31T18:28:08.741Z,26.47
2023-03-31T18:30:57.851Z,26.51
2023-03-31T18:33:48.129Z,26.49
2023-03-31T18:36:36.889Z,26.81
2023-03-31T18:39:27.776Z,27.01
2023-03-31T18:42:18.391Z,27.12
2023-03-31T18:45:08.781Z,26.71
2023-03-31T18:47:57.439Z,26.82
2023-03-31T18:50:47.581Z,27.03
2023-03-31T18:53:37.900Z,27.14
2023-03-31T18:56:26.530Z,27.18
2023-03-31T18:59:15.158Z,27.22
2023-03-31T19:02:03.794Z,27.20
2023-03-31T19:04:55.459Z,27.33
2023-03-31T19:07:45.560Z,27.31
2023-03-31T19:10:34.411Z,26.91
2023-03-31T19:13:23.141Z,26.79
2023-03-31T19:16:12.154Z,26.89
2023-03-31T19:19:01.742Z,26.99
2023-03-31T19:21:52.774Z,26.95
2023-03-31T19:24:43.872Z,27.25
2023-03-31T19:27:33.082Z,27.30
2023-03-31T19:30:25.109Z,27.36
2023-03-31T19:33:15.573Z,27.36
2023-03-31T19:36:04.483Z,27.44
2023-03-31T19:38:53.378Z,27.46
2023-03-31T19:41:44.718Z,27.36
2023-03-31T19:44:34.039Z,27.02
2023-03-31T19:47:22.992Z,26.70
2023-03-31T19:50:13.118Z,26.94
2023-03-31T19:53:01.953Z,26.98
2023-03-31T19:55:57.011Z,26.74
2023-03-31T19:58:48.182Z,26.99
2023-03-31T20:01:37.973Z,27.34
2023-03-31T20:04:26.943Z,27.29
2023-03-31T20:07:15.965Z,27.09
2023-03-31T20:10:04.693Z,27.02
2023-03-31T20:12:53.386Z,27.29
2023-03-31T20:15:43.463Z,27.45
2023-03-31T20:18:32.674Z,27.41
2023-03-31T20:21:23.215Z,27.41
2023-03-31T20:24:16.776Z,27.50
2023-03-31T20:27:05.600Z,27.49
2023-03-31T20:29:54.337Z,27.50
2023-03-31T20:32:44.502Z,27.11
2023-03-31T20:35:34.389Z,27.28
2023-03-31T20:38:22.988Z,27.43
2023-03-31T20:41:12.595Z,27.42
2023-03-31T20:44:01.570Z,27.44
2023-03-31T20:46:52.466Z,27.45
2023-03-31T20:49:43.228Z,27.53
2023-03-31T20:52:32.135Z,27.50
2023-03-31T20:55:20.685Z,27.43
2023-03-31T20:58:09.243Z,27.42
2023-03-31T21:00:59.395Z,27.21
2023-03-31T21:03:48.917Z,26.99
2023-03-31T21:06:40.600Z,27.37
2023-03-31T21:09:29.200Z,27.44
2023-03-31T21:12:17.738Z,27.43
2023-03-31T21:15:07.586Z,27.49
2023-03-31T21:17:56.223Z,27.45
2023-03-31T21:20:51.323Z,27.58
2023-03-31T21:23:41.728Z,27.46
2023-03-31T21:26:30.426Z,27.56
2023-03-31T21:29:18.999Z,27.22
2023-03-31T21:32:09.139Z,26.96
2023-03-31T21:34:58.319Z,26.87
2023-03-31T21:37:47.526Z,26.78
2023-03-31T21:40:37.850Z,26.83
2023-03-31T21:43:27.416Z,26.82
2023-03-31T21:46:17.673Z,26.80
2023-03-31T21:49:06.442Z,26.80
2023-03-31T21:51:55.020Z,26.83
2023-03-31T21:54:43.647Z,26.92
2023-03-31T21:57:33.755Z,26.85
2023-03-31T22:00:22.943Z,26.84
2023-03-31T22:06:08.240Z,26.94
2023-03-31T22:08:56.892Z,26.89
2023-03-31T22:11:46.885Z,26.82
2023-03-31T22:14:40.001Z,26.68
2023-03-31T22:17:29.602Z,26.67
2023-03-31T22:20:18.404Z,26.69
2023-03-31T22:23:07.509Z,26.60
2023-03-31T22:25:56.550Z,26.49
2023-03-31T22:28:45.517Z,26.32
2023-03-31T22:31:36.943Z,26.35
2023-03-31T22:34:25.580Z,26.30
2023-03-31T22:37:14.639Z,26.31
2023-03-31T22:40:03.329Z,26.32
2023-03-31T22:42:54.936Z,26.29
2023-03-31T22:45:43.570Z,26.26
2023-03-31T22:48:33.551Z,26.27
2023-03-31T22:51:22.130Z,26.27
2023-03-31T22:54:14.219Z,26.26
2023-03-31T22:57:02.928Z,26.22
2023-03-31T22:59:51.510Z,26.21
2023-03-31T23:02:40.150Z,26.10
2023-03-31T23:05:30.524Z,26.09
2023-03-31T23:08:19.467Z,26.10
2023-03-31T23:11:10.936Z,26.13
2023-03-31T23:13:59.557Z,26.09
2023-03-31T23:16:48.202Z,26.06
2023-03-31T23:19:37.153Z,26.13
2023-03-31T23:22:27.443Z,26.08
2023-03-31T23:25:16.390Z,26.04
2023-03-31T23:28:05.227Z,26.02
2023-03-31T23:30:56.693Z,26.02
2023-03-31T23:33:45.777Z,26.05
2023-03-31T23:36:34.380Z,26.06
2023-03-31T23:39:24.504Z,25.99
2023-03-31T23:42:16.144Z,25.99
2023-03-31T23:45:05.098Z,26.03
2023-03-31T23:47:53.795Z,25.95
2023-03-31T23:50:42.502Z,25.92
2023-03-31T23:53:31.119Z,25.93
2023-03-31T23:56:21.708Z,25.96
2023-03-31T23:59:10.482Z,25.89
